createdAt,value
2022-08-20T04:51:50.672Z,31.30
2022-08-20T05:11:50.658Z,31.60
2022-08-20T05:21:50.581Z,30.90
2022-08-20T05:31:50.647Z,33.30
2022-08-20T05:41:50.583Z,32.20
2022-08-20T06:31:50.650Z,33.70
2022-08-20T06:41:50.615Z,29.90
2022-08-20T06:51:52.113Z,28.30
2022-08-20T07:01:50.625Z,28.70
2022-08-20T07:11:50.633Z,28.30
2022-08-20T07:21:50.632Z,28.10
2022-08-20T07:31:50.662Z,28.20
2022-08-20T07:41:52.850Z,27.30
2022-08-20T07:51:50.649Z,27.70
2022-08-20T08:11:50.801Z,27.80
2022-08-20T08:21:50.658Z,25.80
2022-08-20T08:31:50.701Z,27.20
2022-08-20T08:41:50.675Z,25.70
2022-08-20T08:51:50.671Z,25.30
2022-08-20T09:01:56.621Z,23.40
2022-08-20T09:11:50.677Z,24.10
2022-08-20T09:21:50.686Z,24.10
2022-08-20T09:31:50.724Z,23.30
2022-08-20T09:41:50.696Z,22.40
2022-08-20T09:51:50.704Z,22.80
2022-08-20T10:01:50.769Z,22.80
2022-08-20T10:11:50.712Z,21.50
2022-08-20T10:21:50.712Z,21.70
2022-08-20T10:31:50.752Z,21.10
2022-08-20T10:41:50.724Z,19.00
2022-08-20T10:51:50.731Z,21.10
2022-08-20T11:01:50.792Z,20.50
2022-08-20T11:11:50.730Z,18.80
2022-08-20T11:21:50.742Z,18.30
2022-08-20T11:31:50.781Z,18.30
2022-08-20T11:41:55.350Z,19.00
2022-08-20T11:51:50.764Z,19.90
2022-08-20T12:02:03.041Z,18.10
2022-08-20T12:11:50.771Z,19.20
2022-08-20T12:21:50.772Z,20.20
2022-08-20T12:31:50.808Z,21.20
2022-08-20T12:41:50.777Z,18.50
2022-08-20T12:51:50.786Z,19.60
2022-08-20T13:01:50.844Z,18.20
2022-08-20T13:11:50.793Z,18.00
2022-08-20T13:21:54.756Z,17.80
2022-08-20T13:31:50.837Z,16.60
2022-08-20T13:51:52.168Z,16.30
2022-08-20T14:01:50.907Z,16.10
2022-08-20T14:11:50.823Z,16.20
2022-08-20T14:21:50.823Z,16.00
2022-08-20T14:31:50.857Z,16.80
2022-08-20T14:41:50.836Z,16.10
2022-08-20T14:51:50.845Z,16.10
2022-08-20T15:01:50.846Z,17.00
2022-08-20T15:11:50.852Z,16.80
2022-08-20T15:31:50.960Z,15.70
2022-08-20T16:21:50.885Z,3.30
2022-08-20T16:31:50.925Z,2.60
2022-08-20T16:41:50.892Z,3.60
2022-08-20T16:51:52.052Z,3.70
2022-08-20T17:01:50.903Z,3.50
2022-08-20T17:11:50.908Z,3.60
2022-08-20T17:21:50.908Z,3.50
2022-08-20T17:31:50.949Z,3.40
2022-08-20T17:41:50.919Z,3.40
2022-08-20T17:51:50.916Z,3.50
2022-08-20T18:01:50.995Z,3.50
2022-08-20T18:11:50.939Z,4.90
2022-08-20T18:21:50.936Z,5.60
2022-08-20T18:31:50.992Z,4.40
2022-08-20T18:41:50.955Z,5.50
2022-08-20T18:51:50.949Z,6.20
2022-08-20T19:01:51.047Z,6.70
2022-08-20T19:11:50.971Z,7.50
2022-08-20T19:21:50.956Z,7.80
2022-08-20T19:31:51.139Z,9.00
2022-08-20T19:41:50.985Z,8.70
2022-08-20T19:51:50.973Z,8.90
2022-08-20T20:01:50.999Z,9.70
2022-08-20T20:11:50.978Z,9.40
2022-08-20T20:21:51.006Z,9.60
2022-08-20T20:31:51.137Z,8.90
2022-08-20T20:41:50.992Z,9.60
2022-08-20T20:51:50.996Z,8.40
2022-08-20T21:01:51.079Z,7.80
2022-08-20T21:11:51.009Z,6.90
2022-08-20T21:21:51.015Z,7.50
2022-08-20T21:31:51.082Z,7.20
2022-08-20T21:41:51.017Z,6.80
2022-08-20T21:51:51.022Z,6.30
2022-08-20T22:01:51.025Z,6.10
2022-08-20T22:21:51.037Z,5.70
2022-08-20T22:31:51.128Z,5.90
2022-08-20T22:41:51.043Z,7.70
2022-08-20T22:51:51.043Z,8.30
2022-08-20T23:01:51.065Z,7.70
2022-08-20T23:11:51.067Z,7.90
2022-08-20T23:21:51.240Z,8.80
2022-08-20T23:31:51.637Z,9.50
2022-08-20T23:41:51.378Z,9.20
2022-08-20T23:51:51.445Z,8.10
